Alpena, Arkansas
Current Conditions -  °F | °C
As of 11:53 PM on Wednesday 28 Jan 2015 (Local Time) from KHRO Reporting Station
Clear Clear  
Wind Chill: 60°   Ceiling: Unl
Heat Index: 60°   Visibility: 10mi
Dew Point: 43°   Wind: 10mph
Humidity: 53%   Direction: 200°SSW
Pressure: 29.92"   Gusts: 18mph
Location:  36.29°N, 93.29°W
Report Text: KHRO 290553Z AUTO 20009G16KT 10SM CLR 16/06 A2992 RMK AO2 SLP123 T01560061 10161 20133 402000028 58003
Loading
Personal Weather Stations






























Interactive Weather Map New forecast layout! Learn more

10-Day Weather Forecast

Advertisements
Track Severe Weather on mobile